Time;durP1;ratioP1;P1;durP2;ratioP2;P2;SDS_P1;SDS_P2;PMS_P1;PMS_P2;Temp;Humidity;BMP_temperature;BMP_pressure;BME280_temperature;BME280_humidity;BME280_pressure;Samples;Min_cycle;Max_cycle;Signal;HPM_P1;HPM_P2
2023/07/20 00:01:18;;;;;;;0.85;0.70;;;;;;;17.72;99.91;100322.03;5193608;28;20045;-74
2023/07/20 00:03:54;;;;;;;1.10;0.73;;;;;;;17.82;99.99;100316.00;5226614;28;20028;-73
2023/07/20 00:06:27;;;;;;;1.67;0.60;;;;;;;17.77;99.70;100320.78;5184735;28;20428;-74
2023/07/20 00:08:58;;;;;;;1.73;0.60;;;;;;;17.81;99.80;100316.13;5199204;28;20077;-74
2023/07/20 00:11:29;;;;;;;1.35;0.60;;;;;;;17.80;99.15;100317.06;5199782;28;20038;-74
2023/07/20 00:13:59;;;;;;;1.52;0.50;;;;;;;17.84;99.26;100314.09;5222317;28;20087;-74
2023/07/20 00:16:30;;;;;;;1.73;0.60;;;;;;;17.92;99.03;100317.06;5240128;28;20022;-75
2023/07/20 00:19:00;;;;;;;1.77;0.57;;;;;;;17.84;98.57;100323.84;5233812;28;20495;-74
2023/07/20 00:21:31;;;;;;;1.60;0.63;;;;;;;17.78;99.51;100311.88;5228652;28;20082;-74
2023/07/20 00:24:01;;;;;;;1.05;0.52;;;;;;;17.82;100.00;100315.16;5250293;28;20461;-74
2023/07/20 00:26:31;;;;;;;1.55;0.63;;;;;;;17.80;98.54;100319.72;5250015;28;20026;-74
2023/07/20 00:29:02;;;;;;;3.15;0.70;;;;;;;17.69;100.00;100309.84;5219842;28;20056;-74
2023/07/20 00:31:32;;;;;;;0.60;0.50;;;;;;;17.74;99.81;100304.25;5250156;28;20389;-73
2023/07/20 00:34:03;;;;;;;0.70;0.40;;;;;;;17.54;100.00;100318.88;5215067;28;20493;-74
2023/07/20 00:36:33;;;;;;;1.85;0.50;;;;;;;17.39;100.00;100313.75;5251331;28;20051;-74
2023/07/20 00:39:04;;;;;;;1.17;0.60;;;;;;;17.50;100.00;100316.53;5260423;28;20028;-74
2023/07/20 00:41:34;;;;;;;2.15;0.50;;;;;;;17.36;100.00;100321.88;5232918;28;20456;-74
2023/07/20 00:44:04;;;;;;;0.70;0.63;;;;;;;17.26;100.00;100312.84;5242176;28;20339;-74
2023/07/20 00:46:35;;;;;;;1.08;0.60;;;;;;;17.24;100.00;100320.88;5259432;28;20035;-74
2023/07/20 00:49:06;;;;;;;1.15;0.57;;;;;;;16.95;100.00;100323.75;5228476;28;20103;-74
2023/07/20 00:51:36;;;;;;;0.70;0.50;;;;;;;16.93;100.00;100317.72;5238978;28;20041;-75
2023/07/20 00:54:06;;;;;;;1.55;0.60;;;;;;;16.95;100.00;100315.84;5245436;28;20451;-74
2023/07/20 00:56:37;;;;;;;0.77;0.60;;;;;;;17.02;100.00;100317.13;5212303;22;20136;-77
2023/07/20 00:59:07;;;;;;;0.93;0.50;;;;;;;17.04;100.00;100307.31;5194788;28;20057;-77
2023/07/20 01:01:38;;;;;;;1.88;0.65;;;;;;;17.06;100.00;100308.91;5161464;28;20029;-77
2023/07/20 01:04:08;;;;;;;1.48;0.70;;;;;;;16.96;100.00;100320.19;5149071;28;20030;-77
2023/07/20 01:06:38;;;;;;;1.80;0.80;;;;;;;16.97;100.00;100316.59;5152314;28;20034;-77
2023/07/20 01:09:11;;;;;;;1.43;0.47;;;;;;;17.02;100.00;100320.63;5165735;28;20057;-77
2023/07/20 01:11:59;;;;;;;3.00;0.50;;;;;;;17.05;100.00;100324.84;5142687;28;20297;-77
2023/07/20 01:14:31;;;;;;;1.30;0.60;;;;;;;17.22;100.00;100319.28;5164904;28;20068;-77
2023/07/20 01:17:02;;;;;;;0.93;0.60;;;;;;;17.23;100.00;100313.06;5168053;28;20087;-76
2023/07/20 01:19:33;;;;;;;0.55;0.50;;;;;;;17.22;100.00;100314.88;5146667;28;20089;-77
2023/07/20 01:22:19;;;;;;;2.10;0.70;;;;;;;17.34;100.00;100310.59;5164494;28;20049;-77
2023/07/20 01:24:59;;;;;;;1.65;0.82;;;;;;;17.28;100.00;100313.63;5165207;28;20038;-76
2023/07/20 01:28:08;;;;;;;0.75;0.50;;;;;;;17.08;100.00;100314.06;5164598;28;20036;-77
2023/07/20 01:31:13;;;;;;;3.08;0.50;;;;;;;17.11;100.00;100313.88;5116830;28;20096;-77
2023/07/20 01:33:45;;;;;;;2.20;0.70;;;;;;;17.02;100.00;100312.69;5163879;28;20129;-77
2023/07/20 01:36:18;;;;;;;3.25;0.70;;;;;;;17.13;100.00;100318.09;5162126;28;20034;-73
2023/07/20 01:38:49;;;;;;;1.92;0.68;;;;;;;16.95;100.00;100316.69;5145449;28;20026;-75
2023/07/20 01:41:20;;;;;;;0.95;0.40;;;;;;;17.08;100.00;100322.84;5162871;28;20022;-77
2023/07/20 01:43:51;;;;;;;3.40;0.63;;;;;;;16.99;100.00;100323.44;5164555;28;20451;-76
2023/07/20 01:46:21;;;;;;;1.80;0.60;;;;;;;17.01;100.00;100318.91;5163166;28;20112;-77
2023/07/20 01:48:52;;;;;;;1.25;0.60;;;;;;;16.98;100.00;100323.56;5145507;28;20057;-77
2023/07/20 01:51:23;;;;;;;1.15;0.60;;;;;;;17.06;100.00;100321.25;5160885;28;20080;-77
2023/07/20 01:53:53;;;;;;;1.15;0.45;;;;;;;16.88;100.00;100317.19;5158519;28;20053;-77
2023/07/20 01:56:23;;;;;;;1.25;0.47;;;;;;;16.94;100.00;100327.34;5147125;28;20029;-76
2023/07/20 01:58:54;;;;;;;0.75;0.50;;;;;;;16.88;100.00;100325.09;5162248;28;20018;-77
2023/07/20 02:01:24;;;;;;;3.40;0.57;;;;;;;16.82;100.00;100330.78;5164322;28;20053;-77
2023/07/20 02:03:54;;;;;;;3.83;0.60;;;;;;;16.95;100.00;100331.69;5163361;28;20480;-77
2023/07/20 02:06:24;;;;;;;0.70;0.50;;;;;;;16.91;100.00;100332.81;5164149;28;20030;-77
2023/07/20 02:08:55;;;;;;;1.77;0.60;;;;;;;16.95;100.00;100327.25;5164003;28;20482;-77
2023/07/20 02:11:25;;;;;;;0.70;0.43;;;;;;;16.87;100.00;100329.53;5163445;28;20342;-76
2023/07/20 02:13:55;;;;;;;0.73;0.45;;;;;;;16.99;100.00;100327.88;5162603;28;20046;-77
2023/07/20 02:16:26;;;;;;;0.93;0.40;;;;;;;16.90;100.00;100328.47;5159089;28;20029;-77
2023/07/20 02:18:56;;;;;;;2.50;0.40;;;;;;;16.79;100.00;100334.47;5165271;28;20018;-77
2023/07/20 02:21:27;;;;;;;1.30;0.68;;;;;;;16.64;100.00;100334.63;5159505;28;20490;-77
2023/07/20 02:23:57;;;;;;;1.20;0.50;;;;;;;16.54;100.00;100335.31;5163862;28;20026;-77
2023/07/20 02:26:28;;;;;;;0.95;0.47;;;;;;;16.61;100.00;100337.44;5145139;28;20022;-76
2023/07/20 02:28:58;;;;;;;5.68;0.70;;;;;;;16.62;100.00;100333.88;5163057;28;20450;-77
2023/07/20 02:31:28;;;;;;;0.82;0.45;;;;;;;16.51;100.00;100332.81;5162949;28;20994;-77
2023/07/20 02:33:58;;;;;;;1.00;0.40;;;;;;;16.61;100.00;100334.81;5143849;28;20084;-77
2023/07/20 02:36:29;;;;;;;5.70;0.80;;;;;;;16.58;100.00;100329.72;5162835;28;20791;-77
2023/07/20 02:39:00;;;;;;;0.70;0.50;;;;;;;16.74;100.00;100337.50;5146729;28;20499;-78
2023/07/20 02:41:33;;;;;;;1.45;0.50;;;;;;;16.77;100.00;100334.66;5156034;28;20030;-77
2023/07/20 02:44:03;;;;;;;1.92;0.50;;;;;;;16.71;100.00;100333.25;5164236;28;20053;-78
2023/07/20 02:46:35;;;;;;;1.73;0.55;;;;;;;16.87;100.00;100326.03;5146444;28;20070;-77
2023/07/20 02:49:05;;;;;;;1.55;0.50;;;;;;;16.70;100.00;100334.19;5169595;28;20026;-77
2023/07/20 02:51:35;;;;;;;1.55;0.40;;;;;;;16.49;100.00;100338.22;5162927;28;20036;-77
2023/07/20 02:54:06;;;;;;;1.13;0.60;;;;;;;16.48;100.00;100335.66;5169171;28;20026;-76
2023/07/20 02:56:36;;;;;;;5.25;0.70;;;;;;;16.55;100.00;100335.19;5167834;28;20315;-74
2023/07/20 02:59:06;;;;;;;1.48;0.52;;;;;;;16.63;100.00;100343.47;5150362;28;20072;-74
2023/07/20 03:01:37;;;;;;;8.18;0.70;;;;;;;16.45;100.00;100336.72;5165323;28;20062;-74
2023/07/20 03:04:09;;;;;;;1.15;0.57;;;;;;;16.20;100.00;100341.78;5151198;28;20033;-74
2023/07/20 03:06:40;;;;;;;3.53;0.52;;;;;;;16.24;100.00;100345.94;5156575;28;20144;-71
2023/07/20 03:09:10;;;;;;;2.80;0.75;;;;;;;16.20;100.00;100349.72;5157463;28;20030;-74
2023/07/20 03:11:41;;;;;;;4.53;0.60;;;;;;;16.14;100.00;100350.09;5160759;28;20692;-74
2023/07/20 03:14:11;;;;;;;3.63;0.60;;;;;;;16.09;100.00;100357.44;5165750;28;20040;-75
2023/07/20 03:16:41;;;;;;;1.83;0.60;;;;;;;16.14;100.00;100354.50;5160638;28;20102;-74
2023/07/20 03:19:12;;;;;;;1.02;0.60;;;;;;;16.06;100.00;100362.88;5161790;28;20025;-74
2023/07/20 03:21:42;;;;;;;3.30;0.50;;;;;;;16.11;100.00;100359.97;5160474;28;20030;-74
2023/07/20 03:24:12;;;;;;;1.50;0.60;;;;;;;16.02;100.00;100366.66;5132193;28;20030;-74
2023/07/20 03:26:42;;;;;;;1.48;0.50;;;;;;;16.04;100.00;100364.78;5148386;28;20042;-74
2023/07/20 03:29:13;;;;;;;0.52;0.50;;;;;;;16.02;100.00;100363.19;5143684;28;20482;-74
2023/07/20 03:31:43;;;;;;;1.25;0.63;;;;;;;16.08;100.00;100353.09;5153606;28;20049;-74
2023/07/20 03:34:13;;;;;;;0.90;0.52;;;;;;;16.17;100.00;100351.69;5158651;28;20033;-74
2023/07/20 03:36:44;;;;;;;1.05;0.68;;;;;;;16.19;100.00;100345.38;5162009;28;20035;-75
2023/07/20 03:39:14;;;;;;;2.55;0.60;;;;;;;16.05;100.00;100345.38;5148917;28;20138;-74
2023/07/20 03:41:44;;;;;;;1.17;0.60;;;;;;;15.99;100.00;100343.13;5158264;28;20610;-75
2023/07/20 03:44:15;;;;;;;0.93;0.50;;;;;;;16.07;100.00;100343.50;5162859;28;20034;-74
2023/07/20 03:46:45;;;;;;;0.60;0.50;;;;;;;16.16;100.00;100348.22;5163276;28;20139;-75
2023/07/20 03:49:15;;;;;;;1.10;0.60;;;;;;;16.36;100.00;100350.47;5166925;28;20025;-74
2023/07/20 03:51:46;;;;;;;2.13;0.60;;;;;;;16.36;100.00;100352.28;5154740;28;20121;-74
2023/07/20 03:54:16;;;;;;;3.42;0.70;;;;;;;16.31;100.00;100347.25;5159870;28;20439;-74
2023/07/20 03:56:46;;;;;;;6.85;1.00;;;;;;;16.37;100.00;100351.34;5145535;28;22462;-74
2023/07/20 03:59:16;;;;;;;2.53;0.73;;;;;;;16.39;100.00;100345.00;5159748;28;20026;-74
2023/07/20 04:01:47;;;;;;;2.13;0.60;;;;;;;16.35;100.00;100353.25;5144864;28;20030;-74
2023/07/20 04:04:17;;;;;;;2.92;0.68;;;;;;;16.46;100.00;100346.34;5166664;28;20041;-74
2023/07/20 04:06:47;;;;;;;1.25;0.70;;;;;;;16.28;100.00;100355.38;5160445;28;20045;-71
2023/07/20 04:09:18;;;;;;;2.28;0.60;;;;;;;16.26;100.00;100359.91;5171181;28;20493;-74
2023/07/20 04:11:48;;;;;;;0.65;0.55;;;;;;;16.43;100.00;100358.84;5155483;28;20567;-71
2023/07/20 04:14:18;;;;;;;3.13;0.90;;;;;;;16.14;100.00;100359.78;5148675;28;20116;-74
2023/07/20 04:16:51;;;;;;;3.33;0.65;;;;;;;16.13;100.00;100363.38;5144021;28;20087;-71
2023/07/20 04:19:21;;;;;;;4.38;0.70;;;;;;;16.13;100.00;100361.59;5149054;28;20060;-74
2023/07/20 04:21:51;;;;;;;2.67;0.73;;;;;;;16.39;100.00;100355.56;5158411;28;20487;-73
2023/07/20 04:24:22;;;;;;;2.10;0.52;;;;;;;16.53;100.00;100352.91;5163503;28;20025;-75
2023/07/20 04:26:52;;;;;;;7.43;1.52;;;;;;;16.50;100.00;100350.47;5161794;28;20022;-74
2023/07/20 04:29:22;;;;;;;5.22;0.82;;;;;;;16.33;100.00;100355.06;5164216;28;20087;-74
2023/07/20 04:31:53;;;;;;;9.88;0.90;;;;;;;16.40;100.00;100359.88;5151618;28;20036;-71
2023/07/20 04:34:23;;;;;;;9.23;0.75;;;;;;;16.41;100.00;100348.38;5152460;28;20022;-72
2023/07/20 04:36:54;;;;;;;3.00;0.90;;;;;;;16.61;100.00;100355.06;5137880;28;20034;-74
2023/07/20 04:39:24;;;;;;;2.40;0.50;;;;;;;16.64;100.00;100355.72;5153452;28;20124;-74
2023/07/20 04:41:54;;;;;;;4.37;0.70;;;;;;;16.57;100.00;100354.41;5162273;28;20029;-74
2023/07/20 04:44:25;;;;;;;6.60;0.70;;;;;;;16.71;100.00;100346.47;5164558;28;20617;-74
2023/07/20 04:46:55;;;;;;;1.92;0.70;;;;;;;16.62;100.00;100360.25;5166223;28;20105;-71
2023/07/20 04:49:25;;;;;;;1.83;0.60;;;;;;;16.69;100.00;100358.91;5163830;28;20265;-74
2023/07/20 04:51:55;;;;;;;9.35;0.70;;;;;;;16.90;100.00;100349.59;5161183;28;20034;-74
2023/07/20 04:54:27;;;;;;;4.30;0.90;;;;;;;16.88;100.00;100351.50;5148867;28;20057;-74
2023/07/20 04:56:57;;;;;;;3.70;0.70;;;;;;;16.97;100.00;100353.56;5163754;28;20061;-74
2023/07/20 04:59:27;;;;;;;4.00;1.30;;;;;;;18.35;100.00;100349.31;5163146;28;20505;-74
2023/07/20 05:01:58;;;;;;;2.47;0.80;;;;;;;21.22;97.47;100340.91;5161099;28;20270;-75
2023/07/20 05:04:28;;;;;;;5.60;0.50;;;;;;;20.87;86.66;100348.28;5137861;28;20412;-74
2023/07/20 05:06:58;;;;;;;2.23;0.70;;;;;;;20.07;90.19;100354.81;5165785;28;20079;-74
2023/07/20 05:09:28;;;;;;;0.93;0.43;;;;;;;20.19;89.60;100354.72;5164920;28;20292;-75
2023/07/20 05:11:59;;;;;;;0.53;0.27;;;;;;;20.00;87.71;100354.44;5161166;28;20083;-74
2023/07/20 05:14:29;;;;;;;1.65;0.60;;;;;;;20.61;86.86;100356.63;5145635;28;20293;-74
2023/07/20 05:16:59;;;;;;;1.00;0.50;;;;;;;20.75;82.52;100353.72;5144489;28;20034;-75
2023/07/20 05:19:30;;;;;;;1.92;0.50;;;;;;;20.40;84.01;100362.78;5163041;28;20306;-74
2023/07/20 05:22:00;;;;;;;1.30;0.65;;;;;;;19.37;90.34;100369.94;5162781;28;20364;-74
2023/07/20 05:24:31;;;;;;;1.05;0.50;;;;;;;18.71;91.47;100363.41;5163650;28;20026;-74
2023/07/20 05:27:01;;;;;;;2.72;0.85;;;;;;;19.05;90.44;100373.25;5162733;28;20079;-74
2023/07/20 05:29:32;;;;;;;1.55;0.57;;;;;;;18.85;91.30;100371.19;5158976;28;20387;-74
2023/07/20 05:32:03;;;;;;;3.03;0.80;;;;;;;18.36;93.50;100374.84;5163561;28;20371;-74
2023/07/20 05:34:34;;;;;;;1.52;0.52;;;;;;;18.21;94.12;100371.41;5162995;28;20164;-75
2023/07/20 05:37:05;;;;;;;1.35;0.55;;;;;;;17.83;96.16;100383.78;5166369;28;20033;-74
2023/07/20 05:39:35;;;;;;;2.40;0.70;;;;;;;17.77;96.89;100380.72;5155941;28;20050;-74
2023/07/20 05:42:05;;;;;;;2.38;0.70;;;;;;;17.81;100.00;100382.22;5147560;28;20379;-74
2023/07/20 05:44:36;;;;;;;2.15;0.60;;;;;;;17.70;100.00;100382.09;5144910;28;20039;-75
2023/07/20 05:47:06;;;;;;;2.47;0.88;;;;;;;17.50;100.00;100377.31;5162189;28;20033;-75
2023/07/20 05:49:37;;;;;;;2.05;0.70;;;;;;;17.31;100.00;100377.63;5163690;28;20555;-75
2023/07/20 05:52:07;;;;;;;1.83;0.70;;;;;;;17.40;100.00;100379.72;5163443;28;20038;-75
2023/07/20 05:54:37;;;;;;;1.30;0.90;;;;;;;17.37;100.00;100384.34;5164387;28;20068;-75
2023/07/20 05:57:08;;;;;;;1.38;0.85;;;;;;;17.45;100.00;100380.25;5168034;28;20026;-75
2023/07/20 05:59:40;;;;;;;3.28;1.00;;;;;;;17.33;100.00;100385.47;5169347;28;20035;-74
2023/07/20 06:02:11;;;;;;;1.50;0.80;;;;;;;17.44;100.00;100385.63;5164509;28;20018;-74
2023/07/20 06:04:41;;;;;;;2.05;0.90;;;;;;;17.36;100.00;100385.31;5167606;28;20040;-74
2023/07/20 06:07:11;;;;;;;2.20;0.90;;;;;;;17.27;100.00;100399.06;5164176;28;20041;-74
2023/07/20 06:09:42;;;;;;;1.40;0.77;;;;;;;17.00;100.00;100396.44;5167868;28;20546;-74
2023/07/20 06:12:12;;;;;;;1.35;0.88;;;;;;;17.08;100.00;100398.56;5163589;28;20022;-74
2023/07/20 06:14:43;;;;;;;1.33;0.80;;;;;;;16.93;100.00;100397.78;5160183;28;20279;-74
2023/07/20 06:17:13;;;;;;;3.10;1.10;;;;;;;17.00;100.00;100407.00;5155997;28;20031;-72
2023/07/20 06:19:43;;;;;;;1.45;0.85;;;;;;;17.26;100.00;100407.94;5159130;28;20067;-75
2023/07/20 06:22:14;;;;;;;2.70;1.10;;;;;;;17.11;100.00;100398.41;5147162;28;20533;-75
2023/07/20 06:24:44;;;;;;;3.20;1.20;;;;;;;17.00;100.00;100407.00;5160967;28;20080;-75
2023/07/20 06:27:15;;;;;;;1.75;0.98;;;;;;;17.00;100.00;100401.72;5166586;28;20034;-75
2023/07/20 06:29:45;;;;;;;1.95;1.00;;;;;;;17.18;100.00;100415.53;5143666;28;20065;-75
2023/07/20 06:32:15;;;;;;;2.72;1.02;;;;;;;17.28;100.00;100409.53;5162279;28;20096;-74
2023/07/20 06:34:47;;;;;;;1.48;1.00;;;;;;;17.51;100.00;100402.78;5164134;28;20305;-75
2023/07/20 06:37:17;;;;;;;3.15;1.10;;;;;;;17.67;100.00;100406.94;5149201;28;20022;-75
2023/07/20 06:39:47;;;;;;;2.00;1.10;;;;;;;17.44;100.00;100407.63;5163507;28;20034;-72
2023/07/20 06:42:17;;;;;;;2.40;1.30;;;;;;;17.44;100.00;100412.91;5165916;28;20480;-71
2023/07/20 06:44:48;;;;;;;4.97;1.20;;;;;;;17.52;100.00;100412.41;5167012;28;20041;-71
2023/07/20 06:47:18;;;;;;;3.10;1.40;;;;;;;17.60;100.00;100413.59;5167894;28;20407;-75
2023/07/20 06:49:49;;;;;;;3.53;1.20;;;;;;;17.50;100.00;100419.59;5165099;28;20209;-72
2023/07/20 06:52:19;;;;;;;3.38;1.67;;;;;;;17.24;100.00;100417.75;5168739;28;20069;-76
2023/07/20 06:54:49;;;;;;;3.42;1.60;;;;;;;17.24;100.00;100420.41;5167489;28;20034;-75
2023/07/20 06:57:20;;;;;;;4.53;1.50;;;;;;;17.31;100.00;100425.19;5204821;23;20061;-73
2023/07/20 06:59:50;;;;;;;4.03;1.50;;;;;;;17.29;100.00;100428.91;5179564;28;20433;-74
2023/07/20 07:02:20;;;;;;;3.55;1.25;;;;;;;17.24;100.00;100426.56;5177288;28;20030;-74
2023/07/20 07:04:51;;;;;;;2.25;1.48;;;;;;;17.30;100.00;100430.59;5179098;28;20099;-73
2023/07/20 07:07:22;;;;;;;2.67;1.70;;;;;;;17.18;100.00;100432.22;5211637;28;20107;-74
2023/07/20 07:09:52;;;;;;;2.03;1.40;;;;;;;17.15;100.00;100437.69;5230550;28;20413;-74
2023/07/20 07:12:22;;;;;;;2.15;1.40;;;;;;;16.91;100.00;100436.63;5217696;28;20464;-73
2023/07/20 07:14:53;;;;;;;3.72;1.73;;;;;;;16.85;100.00;100439.69;5228282;28;20035;-73
2023/07/20 07:17:24;;;;;;;4.18;1.50;;;;;;;16.93;100.00;100437.38;5227290;28;20020;-71
2023/07/20 07:19:56;;;;;;;2.25;1.50;;;;;;;17.01;100.00;100435.09;5238780;28;20097;-73
2023/07/20 07:22:26;;;;;;;3.40;1.70;;;;;;;17.05;100.00;100435.75;5230954;28;20049;-74
2023/07/20 07:24:56;;;;;;;3.65;1.50;;;;;;;17.10;100.00;100438.94;5240181;28;20028;-74
2023/07/20 07:27:26;;;;;;;4.50;1.70;;;;;;;17.21;100.00;100439.09;5213873;28;20469;-74
2023/07/20 07:29:57;;;;;;;2.03;1.40;;;;;;;17.55;100.00;100435.97;5224765;28;20039;-74
2023/07/20 07:32:27;;;;;;;1.93;1.50;;;;;;;17.62;100.00;100438.13;5246478;28;20084;-74
2023/07/20 07:35:00;;;;;;;2.08;1.50;;;;;;;17.61;100.00;100440.84;5219017;28;20288;-73
2023/07/20 07:37:30;;;;;;;1.70;1.20;;;;;;;17.59;100.00;100445.38;5225611;28;20044;-74
2023/07/20 07:40:01;;;;;;;2.58;1.33;;;;;;;17.58;100.00;100452.50;5222771;28;20035;-74
2023/07/20 07:42:31;;;;;;;2.20;1.30;;;;;;;17.39;100.00;100451.16;5237905;28;20083;-74
2023/07/20 07:45:02;;;;;;;4.22;1.73;;;;;;;17.20;100.00;100455.91;5205615;28;20033;-74
2023/07/20 07:47:32;;;;;;;1.83;1.30;;;;;;;17.11;100.00;100456.50;5225473;28;20034;-74
2023/07/20 07:50:03;;;;;;;1.67;1.20;;;;;;;17.05;100.00;100448.94;5208920;28;20029;-74
2023/07/20 07:52:33;;;;;;;2.53;1.40;;;;;;;17.24;100.00;100446.81;5219976;28;20415;-74
2023/07/20 07:55:04;;;;;;;3.53;1.50;;;;;;;17.13;100.00;100449.31;5210816;28;20032;-74
2023/07/20 07:57:34;;;;;;;2.35;1.50;;;;;;;16.43;100.00;100448.56;5223692;28;20097;-74
2023/07/20 08:00:07;;;;;;;2.67;1.42;;;;;;;16.48;100.00;100449.13;5216374;28;20032;-73
2023/07/20 08:02:42;;;;;;;2.33;1.60;;;;;;;17.08;100.00;100448.75;5186435;28;20042;-74
2023/07/20 08:05:12;;;;;;;1.95;1.40;;;;;;;17.43;100.00;100458.78;5203299;28;20105;-74
2023/07/20 08:07:43;;;;;;;1.80;1.20;;;;;;;17.49;100.00;100452.25;5181947;28;20529;-74
2023/07/20 08:10:13;;;;;;;3.88;1.40;;;;;;;17.83;100.00;100451.72;5223908;28;20034;-75
2023/07/20 08:12:43;;;;;;;1.33;1.00;;;;;;;17.80;100.00;100452.75;5216585;28;20036;-74
2023/07/20 08:15:14;;;;;;;2.75;1.15;;;;;;;17.87;100.00;100461.97;5234135;28;20165;-74
2023/07/20 08:17:44;;;;;;;2.38;1.10;;;;;;;18.19;100.00;100460.63;5232763;28;20296;-75
2023/07/20 08:20:16;;;;;;;2.22;1.10;;;;;;;18.82;100.00;100461.47;5218312;28;20551;-74
2023/07/20 08:22:46;;;;;;;1.33;0.80;;;;;;;19.29;100.00;100451.81;5223677;28;20395;-74
2023/07/20 08:25:16;;;;;;;1.30;0.90;;;;;;;19.53;98.60;100465.94;5194231;28;20022;-75
2023/07/20 08:27:47;;;;;;;1.15;0.80;;;;;;;20.02;99.27;100469.31;5218546;28;20083;-75
2023/07/20 08:30:17;;;;;;;3.22;0.93;;;;;;;18.99;100.00;100469.06;5249815;28;20031;-74
2023/07/20 08:32:47;;;;;;;1.38;0.90;;;;;;;19.61;99.37;100471.50;5229792;28;20034;-73
2023/07/20 08:35:18;;;;;;;1.17;0.77;;;;;;;18.90;100.00;100470.56;5225117;28;20026;-74
2023/07/20 08:37:49;;;;;;;1.38;0.95;;;;;;;18.86;100.00;100476.19;5231025;28;20763;-72
2023/07/20 08:40:20;;;;;;;2.50;1.10;;;;;;;18.73;100.00;100475.38;5227188;28;20111;-75
2023/07/20 08:42:50;;;;;;;1.70;1.13;;;;;;;18.74;100.00;100475.25;5220775;28;20054;-74
2023/07/20 08:45:23;;;;;;;1.00;0.68;;;;;;;18.62;100.00;100492.94;5224695;28;20034;-74
2023/07/20 08:47:55;;;;;;;1.58;0.90;;;;;;;18.97;99.07;100477.09;5225559;28;20217;-74
2023/07/20 08:50:28;;;;;;;1.63;0.50;;;;;;;21.66;85.80;100478.22;5233394;28;20087;-74
2023/07/20 08:52:59;;;;;;;2.60;0.47;;;;;;;23.69;77.60;100462.00;5212665;28;20026;-74
2023/07/20 08:55:31;;;;;;;0.77;0.30;;;;;;;24.20;74.30;100471.41;5229570;28;20176;-74
2023/07/20 08:58:03;;;;;;;0.68;0.40;;;;;;;23.47;72.36;100468.44;5210601;28;20027;-74
2023/07/20 09:00:34;;;;;;;1.48;0.40;;;;;;;23.80;71.76;100470.72;5213952;28;20686;-75
2023/07/20 09:03:05;;;;;;;0.80;0.57;;;;;;;22.19;77.97;100475.44;5201984;28;20430;-72
2023/07/20 09:05:35;;;;;;;0.30;0.30;;;;;;;22.14;75.89;100476.78;5229804;28;20036;-74
2023/07/20 09:08:06;;;;;;;0.47;0.40;;;;;;;23.42;74.17;100465.34;5222126;28;20035;-75
2023/07/20 09:10:36;;;;;;;3.07;0.80;;;;;;;24.25;74.79;100466.47;5189995;28;20030;-75
2023/07/20 09:13:06;;;;;;;1.08;0.40;;;;;;;25.95;67.11;100466.63;5214680;28;20308;-74
2023/07/20 09:15:36;;;;;;;0.47;0.27;;;;;;;26.38;65.88;100459.44;5194477;28;20033;-75
2023/07/20 09:18:07;;;;;;;1.98;0.40;;;;;;;25.69;61.99;100463.03;5196373;28;20040;-75
2023/07/20 09:20:38;;;;;;;1.43;0.50;;;;;;;25.35;64.03;100460.16;5227863;28;20022;-75
2023/07/20 09:23:08;;;;;;;0.95;0.30;;;;;;;24.80;65.16;100469.16;5206120;28;20293;-75
2023/07/20 09:25:38;;;;;;;1.40;0.50;;;;;;;26.58;61.15;100462.78;5206669;28;20034;-75
2023/07/20 09:28:08;;;;;;;1.70;0.32;;;;;;;25.41;63.37;100458.72;5217758;28;20281;-75
2023/07/20 09:30:39;;;;;;;0.70;0.20;;;;;;;24.68;65.75;100466.81;5194048;28;20032;-74
2023/07/20 09:33:19;;;;;;;0.97;0.30;;;;;;;23.83;66.58;100462.44;5212253;28;20281;-72
2023/07/20 09:35:50;;;;;;;0.47;0.30;;;;;;;23.83;64.39;100470.47;5237387;28;20285;-74
2023/07/20 09:38:20;;;;;;;0.65;0.22;;;;;;;22.73;66.07;100476.03;5195917;28;20030;-75
2023/07/20 09:40:51;;;;;;;0.68;0.30;;;;;;;22.25;71.16;100474.06;5222293;28;20085;-74
2023/07/20 09:43:22;;;;;;;0.73;0.30;;;;;;;22.23;69.29;100476.03;5204208;28;20079;-75
2023/07/20 09:45:57;;;;;;;0.65;0.30;;;;;;;24.84;64.63;100475.06;5221391;28;20473;-75
2023/07/20 09:48:29;;;;;;;0.13;0.13;;;;;;;25.40;63.29;100470.41;5242554;28;20026;-74
2023/07/20 09:51:00;;;;;;;1.27;0.40;;;;;;;26.76;60.56;100464.41;5217942;28;20059;-75
2023/07/20 09:53:32;;;;;;;0.77;0.30;;;;;;;26.70;61.96;100462.34;5202079;28;20551;-75
2023/07/20 09:56:02;;;;;;;1.23;0.40;;;;;;;26.79;60.06;100461.41;5225604;28;20016;-73
2023/07/20 09:58:34;;;;;;;1.30;0.40;;;;;;;27.42;58.88;100462.69;5202452;28;20414;-75
2023/07/20 10:01:07;;;;;;;0.75;0.20;;;;;;;27.35;57.87;100458.97;5218350;28;20451;-75
2023/07/20 10:03:38;;;;;;;0.50;0.20;;;;;;;26.52;61.37;100463.44;5244319;28;20425;-75
2023/07/20 10:06:12;;;;;;;0.32;0.20;;;;;;;26.42;59.83;100454.59;5226941;28;20065;-75
2023/07/20 10:08:47;;;;;;;0.30;0.30;;;;;;;26.80;57.73;100455.03;5250796;28;20028;-75
2023/07/20 10:11:18;;;;;;;0.68;0.30;;;;;;;25.80;61.45;100455.59;5217451;28;20030;-74
2023/07/20 10:13:53;;;;;;;1.10;0.30;;;;;;;27.20;57.24;100450.72;5233607;28;20093;-74
2023/07/20 10:16:31;;;;;;;0.73;0.25;;;;;;;27.62;57.02;100446.09;5218010;28;20174;-75
2023/07/20 10:19:13;;;;;;;0.88;0.40;;;;;;;26.79;56.69;100453.34;5237290;28;20119;-75
2023/07/20 10:21:48;;;;;;;3.25;0.30;;;;;;;24.57;59.66;100461.63;5231632;28;20101;-75
2023/07/20 10:24:18;;;;;;;0.93;0.30;;;;;;;24.25;61.46;100461.13;5230939;28;20024;-74
2023/07/20 10:26:49;;;;;;;0.40;0.30;;;;;;;23.42;65.27;100460.03;5224324;28;20407;-72
2023/07/20 10:29:20;;;;;;;0.55;0.30;;;;;;;22.73;65.26;100453.91;5203347;28;20031;-75
2023/07/20 10:31:51;;;;;;;0.47;0.30;;;;;;;22.59;64.62;100451.59;5230023;28;20036;-74
2023/07/20 10:34:22;;;;;;;0.45;0.30;;;;;;;22.29;66.94;100454.19;5204495;28;20036;-74
2023/07/20 10:36:54;;;;;;;0.55;0.30;;;;;;;21.65;67.55;100453.44;5246636;28;20081;-74
2023/07/20 10:39:30;;;;;;;0.80;0.35;;;;;;;22.03;67.11;100447.56;5230326;28;20525;-74
2023/07/20 10:42:07;;;;;;;1.23;0.43;;;;;;;22.91;65.47;100445.97;5247151;28;20032;-74
2023/07/20 10:44:41;;;;;;;0.75;0.20;;;;;;;23.35;62.71;100437.53;5234078;28;20064;-74
2023/07/20 10:47:13;;;;;;;1.10;0.32;;;;;;;23.23;67.70;100441.28;5228668;28;20410;-73
2023/07/20 10:50:02;;;;;;;0.52;0.30;;;;;;;23.44;63.20;100441.19;5238440;28;20031;-74
2023/07/20 10:52:40;;;;;;;0.50;0.30;;;;;;;23.50;64.46;100440.66;5226095;28;20070;-73
2023/07/20 10:55:21;;;;;;;2.08;0.30;;;;;;;23.78;62.45;100440.66;5228017;28;20469;-74
2023/07/20 10:58:07;;;;;;;0.95;0.30;;;;;;;23.96;65.04;100433.66;5237827;28;20052;-74
2023/07/20 11:00:54;;;;;;;1.38;0.45;;;;;;;23.70;62.34;100443.16;5232666;28;20030;-74
2023/07/20 11:03:33;;;;;;;0.80;0.40;;;;;;;23.69;64.23;100438.81;5204994;28;20028;-74
2023/07/20 11:06:25;;;;;;;1.05;0.45;;;;;;;23.70;62.17;100442.34;5246887;28;20052;-74
2023/07/20 11:09:16;;;;;;;1.20;0.50;;;;;;;23.38;66.70;100429.25;5221921;28;20028;-74
2023/07/20 11:11:47;;;;;;;2.40;0.40;;;;;;;23.84;63.08;100434.78;5230539;28;20028;-74
2023/07/20 11:14:25;;;;;;;1.23;0.30;;;;;;;24.38;59.68;100434.13;5217876;28;20024;-74
2023/07/20 11:17:11;;;;;;;0.60;0.20;;;;;;;24.47;60.97;100430.56;5247873;28;20059;-74
2023/07/20 11:19:41;;;;;;;0.40;0.25;;;;;;;24.25;59.23;100434.41;5251885;28;20504;-74
2023/07/20 11:22:12;;;;;;;2.15;0.82;;;;;;;24.17;61.11;100444.13;5246400;28;20103;-73
2023/07/20 11:24:42;;;;;;;0.43;0.38;;;;;;;23.55;59.57;100433.88;5253502;28;20146;-74
2023/07/20 11:27:12;;;;;;;1.08;0.40;;;;;;;22.89;61.42;100429.28;5240251;28;20035;-72
2023/07/20 11:29:45;;;;;;;0.33;0.30;;;;;;;22.55;61.94;100439.47;5241624;28;20032;-74
2023/07/20 11:32:22;;;;;;;1.63;0.40;;;;;;;22.08;62.35;100450.69;5230550;28;20710;-73
2023/07/20 11:34:52;;;;;;;4.35;0.70;;;;;;;22.20;62.89;100438.97;5227616;28;20034;-73
2023/07/20 11:37:24;;;;;;;0.67;0.40;;;;;;;22.37;63.33;100449.03;5237180;28;20389;-73
2023/07/20 11:39:57;;;;;;;0.50;0.32;;;;;;;22.12;63.58;100436.16;5206054;28;20269;-74